sensor_id;sensor_type;location;lat;lon;timestamp;P1;durP1;ratioP1;P2;durP2;ratioP2
35917;SDS011;22011;59.912;30.300;2024-01-30T00:00:47;12.65;;;5.05;;
35917;SDS011;22011;59.912;30.300;2024-01-30T00:03:15;8.43;;;4.38;;
35917;SDS011;22011;59.912;30.300;2024-01-30T00:05:44;14.25;;;4.97;;
35917;SDS011;22011;59.912;30.300;2024-01-30T00:08:11;9.05;;;5.00;;
35917;SDS011;22011;59.912;30.300;2024-01-30T00:10:39;11.23;;;4.25;;
35917;SDS011;22011;59.912;30.300;2024-01-30T00:13:07;15.20;;;4.60;;
35917;SDS011;22011;59.912;30.300;2024-01-30T00:15:34;13.48;;;4.75;;
35917;SDS011;22011;59.912;30.300;2024-01-30T00:18:02;12.65;;;4.38;;
35917;SDS011;22011;59.912;30.300;2024-01-30T00:20:30;14.50;;;5.72;;
35917;SDS011;22011;59.912;30.300;2024-01-30T00:22:59;14.68;;;5.40;;
35917;SDS011;22011;59.912;30.300;2024-01-30T00:25:27;12.38;;;3.90;;
35917;SDS011;22011;59.912;30.300;2024-01-30T00:27:55;14.15;;;4.80;;
35917;SDS011;22011;59.912;30.300;2024-01-30T00:30:22;9.30;;;4.22;;
35917;SDS011;22011;59.912;30.300;2024-01-30T00:32:50;17.90;;;6.18;;
35917;SDS011;22011;59.912;30.300;2024-01-30T00:35:17;11.90;;;4.70;;
35917;SDS011;22011;59.912;30.300;2024-01-30T00:37:45;12.02;;;4.05;;
35917;SDS011;22011;59.912;30.300;2024-01-30T00:40:14;14.18;;;4.22;;
35917;SDS011;22011;59.912;30.300;2024-01-30T00:42:43;21.02;;;4.35;;
35917;SDS011;22011;59.912;30.300;2024-01-30T00:45:12;10.65;;;4.70;;
35917;SDS011;22011;59.912;30.300;2024-01-30T00:47:40;15.52;;;4.07;;
35917;SDS011;22011;59.912;30.300;2024-01-30T00:50:07;10.82;;;4.82;;
35917;SDS011;22011;59.912;30.300;2024-01-30T00:52:35;15.55;;;4.93;;
35917;SDS011;22011;59.912;30.300;2024-01-30T00:55:05;8.43;;;4.15;;
35917;SDS011;22011;59.912;30.300;2024-01-30T00:57:34;11.13;;;4.50;;
35917;SDS011;22011;59.912;30.300;2024-01-30T01:00:02;11.50;;;4.72;;
35917;SDS011;22011;59.912;30.300;2024-01-30T01:02:32;14.48;;;5.00;;
35917;SDS011;22011;59.912;30.300;2024-01-30T01:04:59;8.63;;;4.13;;
35917;SDS011;22011;59.912;30.300;2024-01-30T01:07:27;11.00;;;4.22;;
35917;SDS011;22011;59.912;30.300;2024-01-30T01:09:54;12.38;;;4.72;;
35917;SDS011;22011;59.912;30.300;2024-01-30T01:12:22;12.20;;;4.40;;
35917;SDS011;22011;59.912;30.300;2024-01-30T01:14:51;8.00;;;3.95;;
35917;SDS011;22011;59.912;30.300;2024-01-30T01:17:19;13.43;;;4.60;;
35917;SDS011;22011;59.912;30.300;2024-01-30T01:19:46;7.97;;;3.80;;
35917;SDS011;22011;59.912;30.300;2024-01-30T01:22:15;11.80;;;4.03;;
35917;SDS011;22011;59.912;30.300;2024-01-30T01:24:44;12.60;;;4.32;;
35917;SDS011;22011;59.912;30.300;2024-01-30T01:27:11;13.27;;;3.97;;
35917;SDS011;22011;59.912;30.300;2024-01-30T01:29:39;9.07;;;3.80;;
35917;SDS011;22011;59.912;30.300;2024-01-30T01:32:08;10.70;;;3.70;;
35917;SDS011;22011;59.912;30.300;2024-01-30T01:34:35;11.93;;;4.30;;
35917;SDS011;22011;59.912;30.300;2024-01-30T01:37:03;11.32;;;4.03;;
35917;SDS011;22011;59.912;30.300;2024-01-30T01:39:31;8.85;;;4.30;;
35917;SDS011;22011;59.912;30.300;2024-01-30T01:41:58;9.15;;;3.85;;
35917;SDS011;22011;59.912;30.300;2024-01-30T01:44:26;9.43;;;4.15;;
35917;SDS011;22011;59.912;30.300;2024-01-30T01:46:54;11.40;;;3.92;;
35917;SDS011;22011;59.912;30.300;2024-01-30T01:49:25;12.70;;;3.80;;
35917;SDS011;22011;59.912;30.300;2024-01-30T01:51:55;9.32;;;4.07;;
35917;SDS011;22011;59.912;30.300;2024-01-30T01:54:23;14.43;;;4.22;;
35917;SDS011;22011;59.912;30.300;2024-01-30T01:56:53;10.38;;;4.07;;
35917;SDS011;22011;59.912;30.300;2024-01-30T01:59:22;13.10;;;3.78;;
35917;SDS011;22011;59.912;30.300;2024-01-30T02:01:51;10.85;;;4.72;;
35917;SDS011;22011;59.912;30.300;2024-01-30T02:04:19;10.07;;;4.30;;
35917;SDS011;22011;59.912;30.300;2024-01-30T02:06:48;10.55;;;4.25;;
35917;SDS011;22011;59.912;30.300;2024-01-30T02:09:17;13.38;;;4.05;;
35917;SDS011;22011;59.912;30.300;2024-01-30T02:11:44;13.30;;;4.50;;
35917;SDS011;22011;59.912;30.300;2024-01-30T02:14:12;10.13;;;4.22;;
35917;SDS011;22011;59.912;30.300;2024-01-30T02:16:40;12.02;;;4.15;;
35917;SDS011;22011;59.912;30.300;2024-01-30T02:19:07;12.10;;;4.55;;
35917;SDS011;22011;59.912;30.300;2024-01-30T02:21:36;11.55;;;5.07;;
35917;SDS011;22011;59.912;30.300;2024-01-30T02:24:04;12.23;;;3.72;;
35917;SDS011;22011;59.912;30.300;2024-01-30T02:26:33;11.23;;;3.92;;
35917;SDS011;22011;59.912;30.300;2024-01-30T02:29:00;12.13;;;3.83;;
35917;SDS011;22011;59.912;30.300;2024-01-30T02:31:28;12.32;;;3.80;;
35917;SDS011;22011;59.912;30.300;2024-01-30T02:33:56;13.75;;;4.00;;
35917;SDS011;22011;59.912;30.300;2024-01-30T02:36:23;13.05;;;4.35;;
35917;SDS011;22011;59.912;30.300;2024-01-30T02:38:52;9.98;;;4.78;;
35917;SDS011;22011;59.912;30.300;2024-01-30T02:41:20;11.02;;;3.78;;
35917;SDS011;22011;59.912;30.300;2024-01-30T02:43:47;11.85;;;3.88;;
35917;SDS011;22011;59.912;30.300;2024-01-30T02:46:15;12.48;;;4.63;;
35917;SDS011;22011;59.912;30.300;2024-01-30T02:48:43;13.15;;;4.03;;
35917;SDS011;22011;59.912;30.300;2024-01-30T02:51:10;13.27;;;4.65;;
35917;SDS011;22011;59.912;30.300;2024-01-30T02:53:38;9.25;;;3.58;;
35917;SDS011;22011;59.912;30.300;2024-01-30T02:56:07;10.43;;;3.90;;
35917;SDS011;22011;59.912;30.300;2024-01-30T02:58:35;14.88;;;4.28;;
35917;SDS011;22011;59.912;30.300;2024-01-30T03:01:04;14.38;;;5.15;;
35917;SDS011;22011;59.912;30.300;2024-01-30T03:03:31;9.80;;;4.50;;
35917;SDS011;22011;59.912;30.300;2024-01-30T03:06:00;9.35;;;4.88;;
35917;SDS011;22011;59.912;30.300;2024-01-30T03:08:27;10.48;;;4.95;;
35917;SDS011;22011;59.912;30.300;2024-01-30T03:10:55;10.65;;;4.50;;
35917;SDS011;22011;59.912;30.300;2024-01-30T03:13:24;13.38;;;4.25;;
35917;SDS011;22011;59.912;30.300;2024-01-30T03:15:51;12.85;;;5.15;;
35917;SDS011;22011;59.912;30.300;2024-01-30T03:18:19;8.90;;;4.25;;
35917;SDS011;22011;59.912;30.300;2024-01-30T03:20:47;9.50;;;4.18;;
35917;SDS011;22011;59.912;30.300;2024-01-30T03:23:15;13.55;;;4.40;;
35917;SDS011;22011;59.912;30.300;2024-01-30T03:25:42;13.48;;;4.53;;
35917;SDS011;22011;59.912;30.300;2024-01-30T03:28:10;10.77;;;4.10;;
35917;SDS011;22011;59.912;30.300;2024-01-30T03:30:39;11.73;;;5.50;;
35917;SDS011;22011;59.912;30.300;2024-01-30T03:33:07;16.00;;;5.35;;
35917;SDS011;22011;59.912;30.300;2024-01-30T03:35:34;11.77;;;4.50;;
35917;SDS011;22011;59.912;30.300;2024-01-30T03:38:02;12.52;;;5.53;;
35917;SDS011;22011;59.912;30.300;2024-01-30T03:40:30;14.15;;;4.80;;
35917;SDS011;22011;59.912;30.300;2024-01-30T03:42:57;13.75;;;5.07;;
35917;SDS011;22011;59.912;30.300;2024-01-30T03:45:25;15.52;;;5.28;;
35917;SDS011;22011;59.912;30.300;2024-01-30T03:47:54;13.70;;;5.50;;
35917;SDS011;22011;59.912;30.300;2024-01-30T03:50:22;9.88;;;4.93;;
35917;SDS011;22011;59.912;30.300;2024-01-30T03:52:49;13.07;;;5.55;;
35917;SDS011;22011;59.912;30.300;2024-01-30T03:55:17;10.27;;;5.43;;
35917;SDS011;22011;59.912;30.300;2024-01-30T03:57:44;13.40;;;4.82;;
35917;SDS011;22011;59.912;30.300;2024-01-30T04:00:12;13.45;;;6.07;;
35917;SDS011;22011;59.912;30.300;2024-01-30T04:02:41;21.98;;;6.82;;
35917;SDS011;22011;59.912;30.300;2024-01-30T04:05:10;12.02;;;5.25;;
35917;SDS011;22011;59.912;30.300;2024-01-30T04:07:38;16.70;;;6.00;;
35917;SDS011;22011;59.912;30.300;2024-01-30T04:10:06;14.55;;;6.78;;
35917;SDS011;22011;59.912;30.300;2024-01-30T04:12:34;17.77;;;8.95;;
35917;SDS011;22011;59.912;30.300;2024-01-30T04:15:02;12.90;;;7.75;;
35917;SDS011;22011;59.912;30.300;2024-01-30T04:17:30;13.27;;;7.80;;
35917;SDS011;22011;59.912;30.300;2024-01-30T04:19:58;29.08;;;12.27;;
35917;SDS011;22011;59.912;30.300;2024-01-30T04:22:27;20.48;;;9.63;;
35917;SDS011;22011;59.912;30.300;2024-01-30T04:24:55;17.70;;;8.65;;
35917;SDS011;22011;59.912;30.300;2024-01-30T04:27:22;26.95;;;9.25;;
35917;SDS011;22011;59.912;30.300;2024-01-30T04:29:50;18.25;;;6.88;;
35917;SDS011;22011;59.912;30.300;2024-01-30T04:32:17;19.40;;;5.95;;
35917;SDS011;22011;59.912;30.300;2024-01-30T04:34:45;20.27;;;6.88;;
35917;SDS011;22011;59.912;30.300;2024-01-30T04:37:12;18.67;;;6.10;;
35917;SDS011;22011;59.912;30.300;2024-01-30T04:39:41;19.45;;;6.20;;
35917;SDS011;22011;59.912;30.300;2024-01-30T04:42:09;17.17;;;7.05;;
35917;SDS011;22011;59.912;30.300;2024-01-30T04:44:36;23.13;;;6.10;;
35917;SDS011;22011;59.912;30.300;2024-01-30T04:47:04;15.38;;;6.40;;
35917;SDS011;22011;59.912;30.300;2024-01-30T04:49:34;14.98;;;5.97;;
35917;SDS011;22011;59.912;30.300;2024-01-30T04:52:01;13.85;;;5.97;;
35917;SDS011;22011;59.912;30.300;2024-01-30T04:54:29;12.13;;;4.93;;
35917;SDS011;22011;59.912;30.300;2024-01-30T04:56:57;13.00;;;4.97;;
35917;SDS011;22011;59.912;30.300;2024-01-30T04:59:25;17.35;;;4.63;;
35917;SDS011;22011;59.912;30.300;2024-01-30T05:01:53;14.15;;;4.97;;
35917;SDS011;22011;59.912;30.300;2024-01-30T05:04:21;20.25;;;5.38;;
35917;SDS011;22011;59.912;30.300;2024-01-30T05:06:49;12.80;;;5.13;;
35917;SDS011;22011;59.912;30.300;2024-01-30T05:09:16;18.27;;;5.45;;
35917;SDS011;22011;59.912;30.300;2024-01-30T05:11:44;15.48;;;5.60;;
35917;SDS011;22011;59.912;30.300;2024-01-30T05:14:13;13.73;;;5.22;;
35917;SDS011;22011;59.912;30.300;2024-01-30T05:16:42;13.52;;;4.85;;
35917;SDS011;22011;59.912;30.300;2024-01-30T05:21:40;12.30;;;4.68;;
35917;SDS011;22011;59.912;30.300;2024-01-30T05:24:08;9.57;;;4.40;;
35917;SDS011;22011;59.912;30.300;2024-01-30T05:26:36;10.32;;;4.80;;
35917;SDS011;22011;59.912;30.300;2024-01-30T05:29:04;13.90;;;4.90;;
35917;SDS011;22011;59.912;30.300;2024-01-30T05:31:33;12.93;;;4.65;;
35917;SDS011;22011;59.912;30.300;2024-01-30T05:34:01;12.93;;;4.93;;
35917;SDS011;22011;59.912;30.300;2024-01-30T05:36:28;14.57;;;5.45;;
35917;SDS011;22011;59.912;30.300;2024-01-30T05:38:56;13.50;;;5.00;;
35917;SDS011;22011;59.912;30.300;2024-01-30T05:41:24;13.35;;;5.03;;
35917;SDS011;22011;59.912;30.300;2024-01-30T05:43:54;11.90;;;4.80;;
35917;SDS011;22011;59.912;30.300;2024-01-30T05:48:50;15.27;;;7.22;;
35917;SDS011;22011;59.912;30.300;2024-01-30T05:51:18;36.10;;;17.27;;
35917;SDS011;22011;59.912;30.300;2024-01-30T05:53:45;11.98;;;6.22;;
35917;SDS011;22011;59.912;30.300;2024-01-30T05:56:13;16.50;;;6.20;;
35917;SDS011;22011;59.912;30.300;2024-01-30T05:58:41;14.43;;;5.28;;
35917;SDS011;22011;59.912;30.300;2024-01-30T06:01:10;12.55;;;4.60;;
35917;SDS011;22011;59.912;30.300;2024-01-30T06:03:37;14.00;;;5.63;;
35917;SDS011;22011;59.912;30.300;2024-01-30T06:06:07;15.93;;;5.00;;
35917;SDS011;22011;59.912;30.300;2024-01-30T06:08:34;16.33;;;5.30;;
35917;SDS011;22011;59.912;30.300;2024-01-30T06:11:02;14.73;;;5.30;;
35917;SDS011;22011;59.912;30.300;2024-01-30T06:13:30;14.52;;;5.13;;
35917;SDS011;22011;59.912;30.300;2024-01-30T06:15:58;16.00;;;5.28;;
35917;SDS011;22011;59.912;30.300;2024-01-30T06:18:26;21.83;;;6.13;;
35917;SDS011;22011;59.912;30.300;2024-01-30T06:20:56;14.45;;;4.55;;
35917;SDS011;22011;59.912;30.300;2024-01-30T06:23:25;11.10;;;5.25;;
35917;SDS011;22011;59.912;30.300;2024-01-30T06:25:53;12.98;;;5.40;;
35917;SDS011;22011;59.912;30.300;2024-01-30T06:28:20;13.52;;;5.07;;
35917;SDS011;22011;59.912;30.300;2024-01-30T06:30:48;12.10;;;5.70;;
35917;SDS011;22011;59.912;30.300;2024-01-30T06:33:15;14.68;;;5.30;;
35917;SDS011;22011;59.912;30.300;2024-01-30T06:35:43;17.05;;;5.97;;
35917;SDS011;22011;59.912;30.300;2024-01-30T06:38:11;19.08;;;5.68;;
35917;SDS011;22011;59.912;30.300;2024-01-30T06:40:40;18.88;;;6.82;;
35917;SDS011;22011;59.912;30.300;2024-01-30T06:43:08;24.83;;;5.97;;
35917;SDS011;22011;59.912;30.300;2024-01-30T06:45:37;10.63;;;5.28;;
35917;SDS011;22011;59.912;30.300;2024-01-30T06:48:05;14.82;;;5.63;;
35917;SDS011;22011;59.912;30.300;2024-01-30T06:50:33;15.50;;;6.60;;
35917;SDS011;22011;59.912;30.300;2024-01-30T06:53:01;17.45;;;5.38;;
35917;SDS011;22011;59.912;30.300;2024-01-30T06:55:28;14.07;;;6.10;;
35917;SDS011;22011;59.912;30.300;2024-01-30T06:57:57;17.80;;;6.05;;
35917;SDS011;22011;59.912;30.300;2024-01-30T07:00:25;16.05;;;5.90;;
35917;SDS011;22011;59.912;30.300;2024-01-30T07:02:52;16.33;;;6.35;;
35917;SDS011;22011;59.912;30.300;2024-01-30T07:05:20;16.08;;;6.15;;
35917;SDS011;22011;59.912;30.300;2024-01-30T07:07:48;17.52;;;5.70;;
35917;SDS011;22011;59.912;30.300;2024-01-30T07:10:16;14.90;;;5.95;;
35917;SDS011;22011;59.912;30.300;2024-01-30T07:12:44;20.45;;;6.90;;
35917;SDS011;22011;59.912;30.300;2024-01-30T07:15:13;21.42;;;7.05;;
35917;SDS011;22011;59.912;30.300;2024-01-30T07:17:47;20.73;;;6.43;;
35917;SDS011;22011;59.912;30.300;2024-01-30T07:20:15;19.35;;;7.25;;
35917;SDS011;22011;59.912;30.300;2024-01-30T07:22:43;15.38;;;6.63;;
35917;SDS011;22011;59.912;30.300;2024-01-30T07:25:11;22.95;;;8.13;;
35917;SDS011;22011;59.912;30.300;2024-01-30T07:27:38;16.35;;;6.53;;
35917;SDS011;22011;59.912;30.300;2024-01-30T07:30:07;17.45;;;7.88;;
35917;SDS011;22011;59.912;30.300;2024-01-30T07:32:36;14.43;;;6.00;;
35917;SDS011;22011;59.912;30.300;2024-01-30T07:35:04;25.52;;;8.30;;
35917;SDS011;22011;59.912;30.300;2024-01-30T07:37:32;29.88;;;9.00;;
35917;SDS011;22011;59.912;30.300;2024-01-30T07:39:59;30.58;;;7.45;;
35917;SDS011;22011;59.912;30.300;2024-01-30T07:42:28;13.00;;;6.55;;
35917;SDS011;22011;59.912;30.300;2024-01-30T07:44:56;26.67;;;7.90;;
35917;SDS011;22011;59.912;30.300;2024-01-30T07:47:23;33.67;;;7.63;;
35917;SDS011;22011;59.912;30.300;2024-01-30T07:49:52;26.95;;;7.63;;
35917;SDS011;22011;59.912;30.300;2024-01-30T07:52:20;24.73;;;7.50;;
35917;SDS011;22011;59.912;30.300;2024-01-30T07:57:57;28.00;;;8.63;;
35917;SDS011;22011;59.912;30.300;2024-01-30T08:00:26;26.50;;;7.88;;
35917;SDS011;22011;59.912;30.300;2024-01-30T08:02:54;26.92;;;9.75;;
35917;SDS011;22011;59.912;30.300;2024-01-30T08:05:24;20.98;;;8.20;;
35917;SDS011;22011;59.912;30.300;2024-01-30T08:07:51;18.35;;;7.47;;
35917;SDS011;22011;59.912;30.300;2024-01-30T08:10:19;24.67;;;7.15;;
35917;SDS011;22011;59.912;30.300;2024-01-30T08:12:47;20.73;;;7.07;;
35917;SDS011;22011;59.912;30.300;2024-01-30T08:15:15;19.50;;;6.93;;
35917;SDS011;22011;59.912;30.300;2024-01-30T08:17:43;28.90;;;8.25;;
35917;SDS011;22011;59.912;30.300;2024-01-30T08:20:11;23.88;;;8.10;;
35917;SDS011;22011;59.912;30.300;2024-01-30T08:22:41;14.95;;;7.00;;
35917;SDS011;22011;59.912;30.300;2024-01-30T08:25:08;30.23;;;7.95;;
35917;SDS011;22011;59.912;30.300;2024-01-30T08:27:36;26.08;;;7.47;;
35917;SDS011;22011;59.912;30.300;2024-01-30T08:30:05;32.85;;;9.55;;
35917;SDS011;22011;59.912;30.300;2024-01-30T08:32:33;29.10;;;8.98;;
35917;SDS011;22011;59.912;30.300;2024-01-30T08:35:00;23.08;;;8.85;;
35917;SDS011;22011;59.912;30.300;2024-01-30T08:37:29;23.88;;;8.10;;
35917;SDS011;22011;59.912;30.300;2024-01-30T08:39:58;32.83;;;8.82;;
35917;SDS011;22011;59.912;30.300;2024-01-30T08:42:27;31.75;;;9.55;;
35917;SDS011;22011;59.912;30.300;2024-01-30T08:44:55;26.67;;;7.63;;
35917;SDS011;22011;59.912;30.300;2024-01-30T08:47:23;19.75;;;7.28;;
35917;SDS011;22011;59.912;30.300;2024-01-30T08:49:51;26.38;;;7.20;;
35917;SDS011;22011;59.912;30.300;2024-01-30T08:52:18;11.98;;;6.45;;
35917;SDS011;22011;59.912;30.300;2024-01-30T08:54:46;23.95;;;7.45;;
35917;SDS011;22011;59.912;30.300;2024-01-30T08:57:15;17.58;;;6.82;;
35917;SDS011;22011;59.912;30.300;2024-01-30T08:59:42;25.70;;;7.95;;
35917;SDS011;22011;59.912;30.300;2024-01-30T09:02:12;20.45;;;8.27;;
35917;SDS011;22011;59.912;30.300;2024-01-30T09:07:09;24.13;;;7.38;;
35917;SDS011;22011;59.912;30.300;2024-01-30T09:09:37;25.20;;;9.15;;
35917;SDS011;22011;59.912;30.300;2024-01-30T09:12:06;22.20;;;8.93;;
35917;SDS011;22011;59.912;30.300;2024-01-30T09:14:36;19.83;;;8.57;;
35917;SDS011;22011;59.912;30.300;2024-01-30T09:17:04;24.17;;;8.23;;
35917;SDS011;22011;59.912;30.300;2024-01-30T09:19:32;25.48;;;9.60;;
35917;SDS011;22011;59.912;30.300;2024-01-30T09:22:00;14.13;;;8.30;;
35917;SDS011;22011;59.912;30.300;2024-01-30T09:24:27;39.25;;;11.45;;
35917;SDS011;22011;59.912;30.300;2024-01-30T09:26:55;50.78;;;12.48;;
35917;SDS011;22011;59.912;30.300;2024-01-30T09:29:22;34.55;;;13.10;;
35917;SDS011;22011;59.912;30.300;2024-01-30T09:31:51;37.17;;;11.35;;
35917;SDS011;22011;59.912;30.300;2024-01-30T09:34:19;27.23;;;10.10;;
35917;SDS011;22011;59.912;30.300;2024-01-30T09:36:47;36.92;;;9.73;;
35917;SDS011;22011;59.912;30.300;2024-01-30T09:39:14;38.75;;;10.60;;
35917;SDS011;22011;59.912;30.300;2024-01-30T09:41:55;41.53;;;11.77;;
35917;SDS011;22011;59.912;30.300;2024-01-30T09:44:30;37.33;;;9.70;;
35917;SDS011;22011;59.912;30.300;2024-01-30T09:46:59;28.52;;;9.82;;
35917;SDS011;22011;59.912;30.300;2024-01-30T09:49:29;28.75;;;9.35;;
35917;SDS011;22011;59.912;30.300;2024-01-30T09:51:58;42.03;;;11.90;;
35917;SDS011;22011;59.912;30.300;2024-01-30T09:54:27;25.25;;;8.50;;
35917;SDS011;22011;59.912;30.300;2024-01-30T09:59:24;15.50;;;6.95;;
35917;SDS011;22011;59.912;30.300;2024-01-30T10:01:51;19.92;;;7.95;;
35917;SDS011;22011;59.912;30.300;2024-01-30T10:04:20;21.25;;;8.27;;
35917;SDS011;22011;59.912;30.300;2024-01-30T10:06:48;27.77;;;9.18;;
35917;SDS011;22011;59.912;30.300;2024-01-30T10:09:17;14.48;;;8.25;;
35917;SDS011;22011;59.912;30.300;2024-01-30T10:11:45;23.55;;;8.02;;
35917;SDS011;22011;59.912;30.300;2024-01-30T10:14:13;24.92;;;9.18;;
35917;SDS011;22011;59.912;30.300;2024-01-30T10:16:40;23.90;;;8.73;;
35917;SDS011;22011;59.912;30.300;2024-01-30T10:19:08;16.52;;;7.82;;
35917;SDS011;22011;59.912;30.300;2024-01-30T10:21:37;17.95;;;9.23;;
35917;SDS011;22011;59.912;30.300;2024-01-30T10:24:05;18.23;;;7.03;;
35917;SDS011;22011;59.912;30.300;2024-01-30T10:26:33;18.48;;;8.52;;
35917;SDS011;22011;59.912;30.300;2024-01-30T10:29:01;23.02;;;8.07;;
35917;SDS011;22011;59.912;30.300;2024-01-30T10:31:28;17.95;;;8.25;;
35917;SDS011;22011;59.912;30.300;2024-01-30T10:33:56;17.15;;;8.10;;
35917;SDS011;22011;59.912;30.300;2024-01-30T10:36:25;18.08;;;7.82;;
35917;SDS011;22011;59.912;30.300;2024-01-30T10:38:59;15.68;;;7.65;;
35917;SDS011;22011;59.912;30.300;2024-01-30T10:41:27;21.63;;;7.78;;
35917;SDS011;22011;59.912;30.300;2024-01-30T10:43:59;16.48;;;8.15;;
35917;SDS011;22011;59.912;30.300;2024-01-30T10:46:31;15.10;;;7.68;;
35917;SDS011;22011;59.912;30.300;2024-01-30T10:49:00;17.55;;;8.40;;
35917;SDS011;22011;59.912;30.300;2024-01-30T10:51:28;16.23;;;7.95;;
35917;SDS011;22011;59.912;30.300;2024-01-30T10:53:57;16.70;;;7.00;;
35917;SDS011;22011;59.912;30.300;2024-01-30T10:56:26;16.75;;;7.55;;
35917;SDS011;22011;59.912;30.300;2024-01-30T10:58:55;24.13;;;9.40;;
35917;SDS011;22011;59.912;30.300;2024-01-30T11:01:22;26.95;;;8.57;;
35917;SDS011;22011;59.912;30.300;2024-01-30T11:03:51;17.77;;;8.05;;
35917;SDS011;22011;59.912;30.300;2024-01-30T11:06:22;52.15;;;12.55;;
35917;SDS011;22011;59.912;30.300;2024-01-30T11:09:01;32.28;;;10.88;;
35917;SDS011;22011;59.912;30.300;2024-01-30T11:11:46;20.70;;;8.32;;
35917;SDS011;22011;59.912;30.300;2024-01-30T11:14:15;73.90;;;11.98;;
35917;SDS011;22011;59.912;30.300;2024-01-30T11:16:43;26.25;;;8.85;;
35917;SDS011;22011;59.912;30.300;2024-01-30T11:19:10;20.98;;;8.10;;
35917;SDS011;22011;59.912;30.300;2024-01-30T11:21:41;39.90;;;9.68;;
35917;SDS011;22011;59.912;30.300;2024-01-30T11:24:10;29.08;;;7.05;;
35917;SDS011;22011;59.912;30.300;2024-01-30T11:26:42;24.92;;;7.53;;
35917;SDS011;22011;59.912;30.300;2024-01-30T11:29:09;22.90;;;6.28;;
35917;SDS011;22011;59.912;30.300;2024-01-30T11:31:51;12.13;;;6.13;;
35917;SDS011;22011;59.912;30.300;2024-01-30T11:34:19;21.98;;;6.45;;
35917;SDS011;22011;59.912;30.300;2024-01-30T11:36:50;25.65;;;6.63;;
35917;SDS011;22011;59.912;30.300;2024-01-30T11:39:25;22.05;;;7.03;;
35917;SDS011;22011;59.912;30.300;2024-01-30T11:41:53;20.85;;;5.88;;
35917;SDS011;22011;59.912;30.300;2024-01-30T11:44:21;14.15;;;6.93;;
35917;SDS011;22011;59.912;30.300;2024-01-30T11:46:51;15.18;;;6.13;;
35917;SDS011;22011;59.912;30.300;2024-01-30T11:49:19;38.33;;;8.35;;
35917;SDS011;22011;59.912;30.300;2024-01-30T11:51:47;28.40;;;7.88;;
35917;SDS011;22011;59.912;30.300;2024-01-30T11:54:15;25.65;;;8.20;;
35917;SDS011;22011;59.912;30.300;2024-01-30T11:56:44;29.40;;;7.38;;
35917;SDS011;22011;59.912;30.300;2024-01-30T11:59:12;18.52;;;7.20;;
35917;SDS011;22011;59.912;30.300;2024-01-30T12:01:41;27.10;;;7.93;;
35917;SDS011;22011;59.912;30.300;2024-01-30T12:04:09;29.65;;;8.02;;
35917;SDS011;22011;59.912;30.300;2024-01-30T12:06:36;58.40;;;8.90;;
35917;SDS011;22011;59.912;30.300;2024-01-30T12:09:04;38.78;;;7.93;;
35917;SDS011;22011;59.912;30.300;2024-01-30T12:11:43;34.13;;;9.60;;
35917;SDS011;22011;59.912;30.300;2024-01-30T12:14:12;23.75;;;7.15;;
35917;SDS011;22011;59.912;30.300;2024-01-30T12:16:40;44.38;;;8.35;;
35917;SDS011;22011;59.912;30.300;2024-01-30T12:19:08;30.63;;;7.93;;
35917;SDS011;22011;59.912;30.300;2024-01-30T12:21:37;31.15;;;6.55;;
35917;SDS011;22011;59.912;30.300;2024-01-30T12:24:05;19.00;;;6.73;;
35917;SDS011;22011;59.912;30.300;2024-01-30T12:26:34;19.35;;;7.05;;
35917;SDS011;22011;59.912;30.300;2024-01-30T12:29:03;19.85;;;6.57;;
35917;SDS011;22011;59.912;30.300;2024-01-30T12:31:31;14.23;;;5.75;;
35917;SDS011;22011;59.912;30.300;2024-01-30T12:34:00;13.95;;;5.82;;
35917;SDS011;22011;59.912;30.300;2024-01-30T12:36:28;19.63;;;6.07;;
35917;SDS011;22011;59.912;30.300;2024-01-30T12:38:56;13.95;;;6.13;;
35917;SDS011;22011;59.912;30.300;2024-01-30T12:41:24;12.05;;;5.70;;
35917;SDS011;22011;59.912;30.300;2024-01-30T12:43:54;15.70;;;5.68;;
35917;SDS011;22011;59.912;30.300;2024-01-30T12:46:26;28.73;;;5.97;;
35917;SDS011;22011;59.912;30.300;2024-01-30T12:48:55;18.38;;;5.95;;
35917;SDS011;22011;59.912;30.300;2024-01-30T12:51:23;29.23;;;6.72;;
35917;SDS011;22011;59.912;30.300;2024-01-30T12:53:51;19.70;;;6.10;;
35917;SDS011;22011;59.912;30.300;2024-01-30T12:56:18;33.63;;;6.70;;
35917;SDS011;22011;59.912;30.300;2024-01-30T12:58:46;17.77;;;5.78;;
35917;SDS011;22011;59.912;30.300;2024-01-30T13:01:13;17.08;;;6.90;;
35917;SDS011;22011;59.912;30.300;2024-01-30T13:03:42;28.33;;;6.68;;
35917;SDS011;22011;59.912;30.300;2024-01-30T13:06:10;19.23;;;6.53;;
35917;SDS011;22011;59.912;30.300;2024-01-30T13:08:38;38.63;;;9.85;;
35917;SDS011;22011;59.912;30.300;2024-01-30T13:11:05;19.00;;;8.35;;
35917;SDS011;22011;59.912;30.300;2024-01-30T13:13:33;19.95;;;8.15;;
35917;SDS011;22011;59.912;30.300;2024-01-30T13:16:01;22.70;;;8.05;;
35917;SDS011;22011;59.912;30.300;2024-01-30T13:18:30;19.23;;;6.63;;
35917;SDS011;22011;59.912;30.300;2024-01-30T13:20:59;29.50;;;8.65;;
35917;SDS011;22011;59.912;30.300;2024-01-30T13:23:26;22.55;;;8.30;;
35917;SDS011;22011;59.912;30.300;2024-01-30T13:25:54;21.88;;;6.55;;
35917;SDS011;22011;59.912;30.300;2024-01-30T13:28:24;35.03;;;6.93;;
35917;SDS011;22011;59.912;30.300;2024-01-30T13:30:52;30.88;;;8.02;;
35917;SDS011;22011;59.912;30.300;2024-01-30T13:33:20;22.70;;;8.27;;
35917;SDS011;22011;59.912;30.300;2024-01-30T13:35:47;26.70;;;8.30;;
35917;SDS011;22011;59.912;30.300;2024-01-30T13:38:17;16.83;;;8.10;;
35917;SDS011;22011;59.912;30.300;2024-01-30T13:40:44;21.30;;;7.60;;
35917;SDS011;22011;59.912;30.300;2024-01-30T13:43:12;22.27;;;7.90;;
35917;SDS011;22011;59.912;30.300;2024-01-30T13:45:39;20.35;;;8.98;;
35917;SDS011;22011;59.912;30.300;2024-01-30T13:48:08;24.00;;;8.52;;
35917;SDS011;22011;59.912;30.300;2024-01-30T13:50:35;24.15;;;7.75;;
35917;SDS011;22011;59.912;30.300;2024-01-30T13:53:03;29.17;;;8.77;;
35917;SDS011;22011;59.912;30.300;2024-01-30T13:55:32;18.27;;;6.88;;
35917;SDS011;22011;59.912;30.300;2024-01-30T13:58:00;16.95;;;6.60;;
35917;SDS011;22011;59.912;30.300;2024-01-30T14:00:28;15.80;;;6.38;;
35917;SDS011;22011;59.912;30.300;2024-01-30T14:02:56;14.50;;;7.15;;
35917;SDS011;22011;59.912;30.300;2024-01-30T14:05:24;29.77;;;8.40;;
35917;SDS011;22011;59.912;30.300;2024-01-30T14:07:53;33.85;;;8.13;;
35917;SDS011;22011;59.912;30.300;2024-01-30T14:10:21;48.85;;;9.90;;
35917;SDS011;22011;59.912;30.300;2024-01-30T14:12:50;44.60;;;9.35;;
35917;SDS011;22011;59.912;30.300;2024-01-30T14:15:17;35.58;;;8.68;;
35917;SDS011;22011;59.912;30.300;2024-01-30T14:17:45;32.45;;;8.23;;
35917;SDS011;22011;59.912;30.300;2024-01-30T14:20:15;26.85;;;9.05;;
35917;SDS011;22011;59.912;30.300;2024-01-30T14:22:44;36.53;;;8.98;;
35917;SDS011;22011;59.912;30.300;2024-01-30T14:25:12;36.00;;;11.32;;
35917;SDS011;22011;59.912;30.300;2024-01-30T14:27:40;21.58;;;8.30;;
35917;SDS011;22011;59.912;30.300;2024-01-30T14:30:09;15.68;;;8.15;;
35917;SDS011;22011;59.912;30.300;2024-01-30T14:32:38;31.00;;;10.40;;
35917;SDS011;22011;59.912;30.300;2024-01-30T14:35:08;17.00;;;7.88;;
35917;SDS011;22011;59.912;30.300;2024-01-30T14:37:36;19.60;;;8.18;;
35917;SDS011;22011;59.912;30.300;2024-01-30T14:40:05;30.42;;;8.63;;